Time;durP1;ratioP1;P1;durP2;ratioP2;P2;SDS_P1;SDS_P2;PMS_P1;PMS_P2;Temp;Humidity;BMP_temperature;BMP_pressure;BME280_temperature;BME280_humidity;BME280_pressure;Samples;Min_cycle;Max_cycle;Signal;HPM_P1;HPM_P2
2022/06/24 00:00:03;;;;;;;1.70;1.03;;;;;20.20;97831.00;;;;5094976;28;20325;-74
2022/06/24 00:02:29;;;;;;;4.53;1.07;;;;;20.10;97827.00;;;;5094840;28;20202;-74
2022/06/24 00:04:57;;;;;;;0.50;0.50;;;;;20.00;97821.00;;;;5077269;28;20205;-75
2022/06/24 00:07:24;;;;;;;0.47;0.47;;;;;20.00;97818.00;;;;5094946;28;20222;-74
2022/06/24 00:09:51;;;;;;;0.70;0.70;;;;;20.20;97813.00;;;;5094824;28;20634;-73
2022/06/24 00:12:24;;;;;;;0.70;0.70;;;;;20.10;97815.00;;;;5094914;28;20210;-75
2022/06/24 00:14:58;;;;;;;0.40;0.40;;;;;20.20;97812.00;;;;5094601;28;20301;-74
2022/06/24 00:17:28;;;;;;;3.27;1.17;;;;;20.30;97821.00;;;;5077057;28;20536;-74
2022/06/24 00:19:57;;;;;;;0.80;0.80;;;;;20.20;97827.00;;;;5094830;28;20199;-74
2022/06/24 00:22:25;;;;;;;0.40;0.40;;;;;20.30;97827.00;;;;5076945;28;20298;-75
2022/06/24 00:25:08;;;;;;;0.33;0.33;;;;;20.20;97823.00;;;;5076400;28;20220;-75
2022/06/24 00:27:38;;;;;;;0.50;0.50;;;;;20.10;97818.00;;;;5094512;28;20206;-75
2022/06/24 00:30:10;;;;;;;0.50;0.50;;;;;20.00;97823.00;;;;5094393;28;20335;-75
2022/06/24 00:32:40;;;;;;;1.33;1.23;;;;;20.00;97824.00;;;;5094541;28;20270;-75
2022/06/24 00:35:09;;;;;;;0.70;0.70;;;;;20.00;97816.00;;;;5076825;28;20209;-75
2022/06/24 00:37:37;;;;;;;0.40;0.40;;;;;20.00;97822.00;;;;5094273;28;20300;-74
2022/06/24 00:40:24;;;;;;;0.53;0.53;;;;;20.00;97819.00;;;;5094406;28;20611;-75
2022/06/24 00:42:52;;;;;;;0.70;0.70;;;;;20.00;97818.00;;;;5094570;28;20190;-75
2022/06/24 00:45:24;;;;;;;0.40;0.40;;;;;19.90;97822.00;;;;5094315;28;20195;-75
2022/06/24 00:47:52;;;;;;;0.57;0.57;;;;;19.90;97803.00;;;;5094745;28;20199;-74
2022/06/24 00:50:22;;;;;;;0.40;0.40;;;;;19.90;97797.00;;;;5101419;28;20217;-75
2022/06/24 00:52:51;;;;;;;3.30;0.97;;;;;19.90;97782.00;;;;5097963;28;20198;-74
2022/06/24 00:55:20;;;;;;;0.90;0.90;;;;;20.00;97777.00;;;;5095362;28;20222;-74
2022/06/24 00:57:47;;;;;;;0.70;0.70;;;;;20.00;97761.00;;;;5093867;28;20214;-72
2022/06/24 01:00:18;;;;;;;0.67;0.67;;;;;20.00;97760.00;;;;5094002;28;20214;-75
2022/06/24 01:02:48;;;;;;;0.40;0.40;;;;;20.00;97752.00;;;;5094450;28;20206;-74
2022/06/24 01:05:18;;;;;;;0.70;0.70;;;;;20.00;97761.00;;;;5093885;28;20237;-73
2022/06/24 01:07:45;;;;;;;0.50;0.50;;;;;20.00;97776.00;;;;5094228;28;20199;-74
2022/06/24 01:10:15;;;;;;;0.40;0.40;;;;;20.00;97762.00;;;;5076588;28;20527;-75
2022/06/24 01:12:41;;;;;;;0.33;0.33;;;;;20.00;97752.00;;;;5093747;28;20230;-75
2022/06/24 01:15:09;;;;;;;0.40;0.40;;;;;20.00;97742.00;;;;5093800;28;20214;-74
2022/06/24 01:17:37;;;;;;;0.40;0.40;;;;;20.00;97741.00;;;;5093691;28;20291;-74
2022/06/24 01:20:04;;;;;;;2.23;0.60;;;;;20.00;97742.00;;;;5093557;28;20242;-74
2022/06/24 01:22:32;;;;;;;0.80;0.80;;;;;19.90;97753.00;;;;5075998;28;20199;-74
2022/06/24 01:24:59;;;;;;;0.30;0.30;;;;;19.90;97746.00;;;;5093714;28;20183;-75
2022/06/24 01:27:26;;;;;;;0.60;0.60;;;;;19.90;97743.00;;;;5093661;28;20236;-75
2022/06/24 01:29:53;;;;;;;0.40;0.40;;;;;20.00;97745.00;;;;5093545;28;20205;-75
2022/06/24 01:32:20;;;;;;;0.40;0.40;;;;;20.00;97740.00;;;;5076029;28;20205;-74
2022/06/24 01:34:49;;;;;;;0.47;0.47;;;;;20.00;97733.00;;;;5075797;28;20252;-75
2022/06/24 01:37:16;;;;;;;1.10;1.10;;;;;20.10;97729.00;;;;5077679;28;20226;-75
2022/06/24 01:39:46;;;;;;;0.70;0.70;;;;;20.10;97730.00;;;;5097135;28;20202;-75
2022/06/24 01:42:16;;;;;;;1.10;1.00;;;;;20.20;97727.00;;;;5097352;28;20525;-75
2022/06/24 01:44:45;;;;;;;0.57;0.57;;;;;20.00;97751.00;;;;5099070;28;20190;-75
2022/06/24 01:47:12;;;;;;;0.50;0.50;;;;;19.90;97747.00;;;;5098743;28;20215;-74
2022/06/24 01:49:39;;;;;;;0.83;0.83;;;;;19.70;97742.00;;;;5097416;28;20262;-75
2022/06/24 01:52:06;;;;;;;0.40;0.40;;;;;19.70;97740.00;;;;5097219;28;20186;-75
2022/06/24 01:54:33;;;;;;;0.70;0.70;;;;;19.70;97750.00;;;;5097471;28;20260;-75
2022/06/24 01:57:00;;;;;;;0.50;0.50;;;;;19.70;97748.00;;;;5097247;28;20220;-74
2022/06/24 01:59:29;;;;;;;1.30;1.23;;;;;19.60;97752.00;;;;5097019;28;20218;-73
2022/06/24 02:01:57;;;;;;;10.30;1.23;;;;;19.60;97742.00;;;;5096774;28;20301;-74
2022/06/24 02:04:24;;;;;;;0.43;0.43;;;;;19.50;97738.00;;;;5097866;28;20194;-74
2022/06/24 02:06:51;;;;;;;0.50;0.50;;;;;19.50;97737.00;;;;5099700;28;20281;-73
2022/06/24 02:09:17;;;;;;;0.80;0.80;;;;;19.50;97737.00;;;;5102219;28;20227;-75
2022/06/24 02:14:31;;;;;;;0.80;0.80;;;;;19.60;97728.00;;;;5096739;28;20182;-75
2022/06/24 02:16:58;;;;;;;0.40;0.40;;;;;19.60;97723.00;;;;5078570;28;20544;-74
2022/06/24 02:19:25;;;;;;;0.63;0.63;;;;;19.60;97719.00;;;;5096542;28;20198;-74
2022/06/24 02:21:52;;;;;;;0.40;0.40;;;;;19.80;97716.00;;;;5096537;28;20190;-74
2022/06/24 02:24:19;;;;;;;0.40;0.40;;;;;19.70;97709.00;;;;5096312;28;20214;-73
2022/06/24 02:26:47;;;;;;;0.50;0.50;;;;;19.70;97711.00;;;;5096439;28;20206;-74
2022/06/24 02:29:14;;;;;;;0.60;0.60;;;;;19.60;97714.00;;;;5096462;28;20241;-74
2022/06/24 02:31:42;;;;;;;0.80;0.80;;;;;19.60;97719.00;;;;5096269;28;20265;-75
2022/06/24 02:34:09;;;;;;;0.40;0.40;;;;;19.40;97708.00;;;;5096284;28;20210;-75
2022/06/24 02:36:36;;;;;;;0.77;0.60;;;;;19.30;97700.00;;;;5096701;28;20289;-74
2022/06/24 02:39:03;;;;;;;0.30;0.30;;;;;19.40;97701.00;;;;5078527;28;20561;-75
2022/06/24 02:41:33;;;;;;;0.73;0.73;;;;;19.30;97707.00;;;;5097349;28;20187;-75
2022/06/24 02:43:59;;;;;;;0.70;0.70;;;;;19.30;97698.00;;;;5096121;28;20206;-75
2022/06/24 02:46:26;;;;;;;1.13;1.00;;;;;19.30;97704.00;;;;5096372;28;20195;-75
2022/06/24 02:48:54;;;;;;;0.70;0.70;;;;;19.30;97706.00;;;;5095740;28;20195;-74
2022/06/24 02:51:20;;;;;;;0.80;0.80;;;;;19.20;97717.00;;;;5096001;28;20649;-74
2022/06/24 02:53:47;;;;;;;0.50;0.50;;;;;19.20;97720.00;;;;5095920;28;20194;-74
2022/06/24 02:56:16;;;;;;;0.50;0.50;;;;;19.20;97712.00;;;;5095896;28;20195;-75
2022/06/24 02:58:45;;;;;;;0.40;0.40;;;;;19.20;97712.00;;;;5095814;28;20234;-74
2022/06/24 03:01:12;;;;;;;0.53;0.53;;;;;19.20;97713.00;;;;5095849;28;20774;-74
2022/06/24 03:03:39;;;;;;;0.60;0.60;;;;;19.10;97711.00;;;;5095861;28;20194;-75
2022/06/24 03:06:08;;;;;;;0.53;0.53;;;;;19.10;97712.00;;;;5095573;28;20198;-75
2022/06/24 03:08:35;;;;;;;0.57;0.57;;;;;19.00;97709.00;;;;5095703;28;20187;-75
2022/06/24 03:11:02;;;;;;;0.50;0.50;;;;;18.90;97715.00;;;;5095732;28;20259;-75
2022/06/24 03:13:29;;;;;;;0.30;0.30;;;;;18.80;97709.00;;;;5095671;28;20279;-74
2022/06/24 03:16:01;;;;;;;0.70;0.70;;;;;18.60;97703.00;;;;5095635;28;20194;-74
2022/06/24 03:18:27;;;;;;;1.20;1.10;;;;;18.70;97710.00;;;;5095336;28;20226;-75
2022/06/24 03:20:54;;;;;;;0.60;0.60;;;;;18.60;97714.00;;;;5095473;28;20218;-74
2022/06/24 03:23:22;;;;;;;0.70;0.70;;;;;18.60;97704.00;;;;5077764;28;20230;-74
2022/06/24 03:25:49;;;;;;;0.40;0.40;;;;;18.40;97711.00;;;;5095442;28;20198;-74
2022/06/24 03:28:15;;;;;;;0.47;0.47;;;;;18.50;97698.00;;;;5095782;28;20218;-72
2022/06/24 03:30:42;;;;;;;0.47;0.47;;;;;18.50;97706.00;;;;5096933;28;20273;-74
2022/06/24 03:33:09;;;;;;;0.80;0.80;;;;;18.40;97704.00;;;;5081563;28;20203;-73
2022/06/24 03:35:36;;;;;;;0.50;0.50;;;;;18.50;97694.00;;;;5096595;28;20225;-74
2022/06/24 03:38:03;;;;;;;1.23;1.13;;;;;18.50;97696.00;;;;5095406;28;20229;-74
2022/06/24 03:40:33;;;;;;;1.07;1.07;;;;;18.50;97701.00;;;;5095178;28;20241;-73
2022/06/24 03:43:02;;;;;;;0.60;0.60;;;;;18.60;97698.00;;;;5095191;28;20274;-74
2022/06/24 03:45:32;;;;;;;0.93;0.93;;;;;18.50;97701.00;;;;5095117;28;20255;-73
2022/06/24 03:47:58;;;;;;;0.60;0.60;;;;;18.50;97688.00;;;;5077256;28;20203;-73
2022/06/24 03:50:25;;;;;;;0.67;0.67;;;;;18.50;97690.00;;;;5094956;28;20247;-74
2022/06/24 03:52:54;;;;;;;0.50;0.50;;;;;18.50;97688.00;;;;5077609;28;20521;-74
2022/06/24 03:55:21;;;;;;;1.03;1.03;;;;;18.70;97689.00;;;;5095007;28;20186;-74
2022/06/24 03:57:49;;;;;;;0.73;0.73;;;;;18.70;97684.00;;;;5077234;28;20237;-74
2022/06/24 04:00:16;;;;;;;1.17;1.03;;;;;18.70;97683.00;;;;5094073;28;20210;-74
2022/06/24 04:02:44;;;;;;;1.63;1.53;;;;;18.50;97680.00;;;;5094866;28;20290;-74
2022/06/24 04:05:11;;;;;;;0.80;0.80;;;;;18.60;97685.00;;;;5094798;28;20737;-74
2022/06/24 04:07:38;;;;;;;0.57;0.57;;;;;18.60;97680.00;;;;5094664;28;20210;-74
2022/06/24 04:10:06;;;;;;;1.10;1.10;;;;;18.60;97685.00;;;;5094755;28;20212;-74
2022/06/24 04:12:33;;;;;;;0.60;0.60;;;;;18.70;97687.00;;;;5094705;28;20200;-74
2022/06/24 04:15:17;;;;;;;1.23;1.23;;;;;18.50;97689.00;;;;5094683;28;20248;-72
2022/06/24 04:17:45;;;;;;;0.60;0.60;;;;;18.70;97685.00;;;;5094469;28;20219;-74
2022/06/24 04:20:15;;;;;;;1.07;1.07;;;;;18.90;97693.00;;;;5094610;28;20273;-74
2022/06/24 04:22:42;;;;;;;9.13;1.07;;;;;18.80;97691.00;;;;5094611;28;20186;-73
2022/06/24 04:25:10;;;;;;;0.77;0.77;;;;;18.80;97690.00;;;;5094448;28;20207;-72
2022/06/24 04:27:39;;;;;;;0.53;0.53;;;;;18.90;97686.00;;;;5094713;28;20290;-72
2022/06/24 04:30:09;;;;;;;0.70;0.70;;;;;18.80;97691.00;;;;5094376;28;20245;-73
2022/06/24 04:32:39;;;;;;;0.87;0.87;;;;;18.80;97685.00;;;;5094388;28;20214;-74
2022/06/24 04:35:06;;;;;;;0.70;0.70;;;;;18.90;97686.00;;;;5094330;28;20205;-74
2022/06/24 04:37:37;;;;;;;0.47;0.47;;;;;19.00;97683.00;;;;5094304;28;20232;-74
2022/06/24 04:40:05;;;;;;;0.60;0.60;;;;;19.00;97680.00;;;;5094229;28;20222;-74
2022/06/24 04:42:32;;;;;;;0.40;0.40;;;;;18.90;97674.00;;;;5094178;28;20194;-74
2022/06/24 04:45:01;;;;;;;0.63;0.63;;;;;19.00;97676.00;;;;5094155;28;20533;-73
2022/06/24 04:47:31;;;;;;;2.43;1.70;;;;;19.00;97683.00;;;;5094009;28;20219;-74
2022/06/24 04:49:58;;;;;;;0.50;0.50;;;;;19.00;97677.00;;;;5076181;28;20198;-74
2022/06/24 04:52:27;;;;;;;0.50;0.50;;;;;19.10;97674.00;;;;5094203;28;20281;-74
2022/06/24 04:54:56;;;;;;;1.00;1.00;;;;;19.10;97668.00;;;;5076057;28;20579;-75
2022/06/24 04:57:25;;;;;;;0.40;0.40;;;;;19.00;97667.00;;;;5093931;28;20246;-75
2022/06/24 04:59:52;;;;;;;1.20;0.93;;;;;18.90;97662.00;;;;5093923;28;20263;-74
2022/06/24 05:02:19;;;;;;;0.73;0.73;;;;;19.00;97661.00;;;;5093846;28;20218;-75
2022/06/24 05:04:47;;;;;;;6.80;1.20;;;;;19.10;97664.00;;;;5093916;28;20696;-74
2022/06/24 05:07:14;;;;;;;0.67;0.67;;;;;19.30;97671.00;;;;5093779;28;20191;-75
2022/06/24 05:09:40;;;;;;;0.70;0.70;;;;;19.30;97670.00;;;;5093832;28;20224;-72
2022/06/24 05:12:08;;;;;;;0.87;0.87;;;;;19.40;97670.00;;;;5093630;28;20215;-71
2022/06/24 05:14:37;;;;;;;1.07;1.07;;;;;19.40;97672.00;;;;5093630;28;20215;-71
2022/06/24 05:17:04;;;;;;;0.73;0.73;;;;;19.50;97665.00;;;;5093782;28;20629;-71
2022/06/24 05:19:33;;;;;;;0.60;0.60;;;;;19.60;97669.00;;;;5093903;28;20225;-70
2022/06/24 05:22:01;;;;;;;0.67;0.67;;;;;19.70;97674.00;;;;5093573;28;20194;-74
2022/06/24 05:24:28;;;;;;;0.97;0.97;;;;;19.80;97664.00;;;;5093581;28;20542;-73
2022/06/24 05:26:54;;;;;;;0.50;0.50;;;;;19.80;97662.00;;;;5093555;28;20343;-76
2022/06/24 05:29:21;;;;;;;0.50;0.50;;;;;19.70;97660.00;;;;5093610;28;20190;-74
2022/06/24 05:31:50;;;;;;;1.37;1.07;;;;;19.80;97658.00;;;;5093554;28;20222;-75
2022/06/24 05:34:17;;;;;;;0.90;0.90;;;;;20.00;97663.00;;;;5093556;28;20199;-75
2022/06/24 05:36:44;;;;;;;0.60;0.60;;;;;20.10;97655.00;;;;5075994;28;20218;-75
2022/06/24 05:39:12;;;;;;;0.70;0.70;;;;;20.00;97655.00;;;;5093529;28;20229;-75
2022/06/24 05:41:40;;;;;;;0.33;0.33;;;;;20.20;97651.00;;;;5093536;28;20217;-75
2022/06/24 05:44:08;;;;;;;0.43;0.43;;;;;20.30;97657.00;;;;5093545;28;20269;-75
2022/06/24 05:46:35;;;;;;;0.60;0.60;;;;;20.30;97654.00;;;;5093433;28;20195;-76
2022/06/24 05:49:02;;;;;;;3.00;1.30;;;;;20.50;97661.00;;;;5093446;28;20186;-74
2022/06/24 05:51:29;;;;;;;0.53;0.53;;;;;20.50;97660.00;;;;5093772;28;20187;-75
2022/06/24 05:56:42;;;;;;;0.30;0.30;;;;;20.50;97652.00;;;;5097265;28;20561;-74
2022/06/24 05:59:08;;;;;;;0.50;0.50;;;;;20.60;97656.00;;;;5093395;28;20222;-74
2022/06/24 06:01:36;;;;;;;0.70;0.70;;;;;20.50;97651.00;;;;5093319;28;20205;-74
2022/06/24 06:04:03;;;;;;;1.07;0.73;;;;;20.50;97662.00;;;;5093093;28;20284;-73
2022/06/24 06:06:30;;;;;;;0.53;0.53;;;;;20.50;97653.00;;;;5093122;28;20198;-76
2022/06/24 06:08:57;;;;;;;0.50;0.50;;;;;20.50;97649.00;;;;5075546;28;20208;-75
2022/06/24 06:11:25;;;;;;;0.60;0.60;;;;;20.60;97644.00;;;;5093318;28;20187;-74
2022/06/24 06:13:54;;;;;;;0.83;0.83;;;;;20.70;97648.00;;;;5093149;28;20209;-75
2022/06/24 06:16:22;;;;;;;0.50;0.50;;;;;20.70;97649.00;;;;5093111;28;20222;-77
2022/06/24 06:18:49;;;;;;;0.40;0.40;;;;;20.50;97651.00;;;;5093033;28;20288;-76
2022/06/24 06:21:16;;;;;;;0.47;0.47;;;;;20.60;97653.00;;;;5092949;28;20218;-77
2022/06/24 06:23:44;;;;;;;0.52;0.52;;;;;20.80;97655.00;;;;5077964;28;20202;-76
2022/06/24 06:26:12;;;;;;;1.03;0.87;;;;;20.90;97649.00;;;;5096466;28;20315;-77
2022/06/24 06:28:40;;;;;;;0.50;0.50;;;;;21.00;97664.00;;;;5096547;28;20313;-76
2022/06/24 06:31:09;;;;;;;0.40;0.40;;;;;21.10;97658.00;;;;5078642;28;20570;-77
2022/06/24 06:33:36;;;;;;;0.97;0.97;;;;;21.20;97663.00;;;;5078725;28;20199;-76
2022/06/24 06:36:04;;;;;;;0.50;0.50;;;;;21.40;97664.00;;;;5096428;28;20183;-77
2022/06/24 06:38:34;;;;;;;23.80;0.87;;;;;21.40;97667.00;;;;5096133;28;20222;-76
2022/06/24 06:41:01;;;;;;;0.73;0.73;;;;;21.30;97668.00;;;;5096127;28;20305;-74
2022/06/24 06:43:28;;;;;;;1.48;1.38;;;;;21.40;97672.00;;;;5096099;28;20206;-75
2022/06/24 06:45:55;;;;;;;0.50;0.50;;;;;21.60;97663.00;;;;5096043;28;20201;-74
2022/06/24 06:48:24;;;;;;;0.40;0.40;;;;;21.80;97670.00;;;;5095912;28;20226;-76
2022/06/24 06:50:55;;;;;;;1.10;0.68;;;;;21.50;97666.00;;;;5096107;28;20187;-75
2022/06/24 06:53:22;;;;;;;0.47;0.47;;;;;21.60;97659.00;;;;5096028;28;20201;-75
2022/06/24 06:55:49;;;;;;;4.77;1.00;;;;;21.60;97664.00;;;;5095819;28;20231;-75
2022/06/24 06:58:16;;;;;;;0.40;0.40;;;;;21.70;97661.00;;;;5078381;28;20237;-75
2022/06/24 07:00:44;;;;;;;0.50;0.50;;;;;21.80;97661.00;;;;5078087;28;20237;-76
2022/06/24 07:03:11;;;;;;;0.70;0.70;;;;;21.90;97663.00;;;;5095779;28;20262;-74
2022/06/24 07:05:38;;;;;;;0.70;0.70;;;;;21.90;97660.00;;;;5095932;28;20277;-73
2022/06/24 07:08:06;;;;;;;0.40;0.40;;;;;21.90;97659.00;;;;5095695;28;20662;-73
2022/06/24 07:10:33;;;;;;;0.60;0.60;;;;;22.00;97654.00;;;;5095849;28;20194;-74
2022/06/24 07:13:00;;;;;;;0.88;0.88;;;;;22.20;97661.00;;;;5095553;28;20652;-75
2022/06/24 07:15:26;;;;;;;0.50;0.50;;;;;22.30;97663.00;;;;5095602;28;20202;-75
2022/06/24 07:17:56;;;;;;;0.70;0.70;;;;;22.40;97658.00;;;;5095736;28;20222;-77
2022/06/24 07:20:22;;;;;;;0.68;0.68;;;;;22.50;97657.00;;;;5095436;28;20226;-76
2022/06/24 07:22:50;;;;;;;0.75;0.75;;;;;22.50;97658.00;;;;5095449;28;20260;-76
2022/06/24 07:25:17;;;;;;;0.77;0.77;;;;;22.30;97658.00;;;;5095355;28;20213;-77
2022/06/24 07:27:44;;;;;;;0.82;0.82;;;;;22.50;97663.00;;;;5095304;28;20222;-76
2022/06/24 07:30:11;;;;;;;0.77;0.77;;;;;22.70;97661.00;;;;5095700;28;20231;-77
2022/06/24 07:32:38;;;;;;;0.47;0.47;;;;;22.50;97662.00;;;;5095221;28;20305;-75
2022/06/24 07:35:08;;;;;;;0.40;0.40;;;;;22.60;97663.00;;;;5076183;28;20641;-75
2022/06/24 07:37:35;;;;;;;5.15;0.75;;;;;23.00;97659.00;;;;5095178;28;20214;-74
2022/06/24 07:40:03;;;;;;;0.70;0.70;;;;;22.90;97649.00;;;;5095097;28;20681;-74
2022/06/24 07:42:32;;;;;;;1.02;1.02;;;;;22.90;97660.00;;;;5095302;28;20240;-78
2022/06/24 07:44:59;;;;;;;0.82;0.82;;;;;23.00;97656.00;;;;5095132;28;20202;-76
2022/06/24 07:47:26;;;;;;;0.57;0.57;;;;;23.10;97639.00;;;;5095204;28;20275;-75
2022/06/24 07:49:53;;;;;;;3.60;1.10;;;;;23.30;97645.00;;;;5095212;28;20202;-76
2022/06/24 07:52:20;;;;;;;0.70;0.70;;;;;23.00;97649.00;;;;5095088;28;20296;-75
2022/06/24 07:54:46;;;;;;;0.40;0.40;;;;;23.10;97639.00;;;;5095107;28;20217;-76
2022/06/24 07:57:13;;;;;;;0.35;0.35;;;;;23.30;97636.00;;;;5095419;28;20205;-74
2022/06/24 07:59:45;;;;;;;2.38;1.20;;;;;23.40;97639.00;;;;5094803;28;20269;-75
2022/06/24 08:02:14;;;;;;;0.93;0.93;;;;;23.20;97637.00;;;;5094916;28;20187;-75
2022/06/24 08:04:41;;;;;;;0.60;0.60;;;;;23.20;97638.00;;;;5094844;28;20219;-76
2022/06/24 08:07:07;;;;;;;0.60;0.60;;;;;23.20;97636.00;;;;5094719;28;20206;-76
2022/06/24 08:09:36;;;;;;;6.45;1.52;;;;;23.50;97634.00;;;;5094943;28;20209;-74
2022/06/24 08:12:03;;;;;;;0.70;0.70;;;;;23.60;97640.00;;;;5076950;28;20615;-72
2022/06/24 08:14:32;;;;;;;0.40;0.40;;;;;23.50;97628.00;;;;5094735;28;20191;-75
2022/06/24 08:16:58;;;;;;;0.80;0.80;;;;;23.50;97643.00;;;;5094735;28;20257;-76
2022/06/24 08:19:25;;;;;;;2.97;0.88;;;;;23.50;97639.00;;;;5077583;28;20222;-76
2022/06/24 08:21:52;;;;;;;0.77;0.77;;;;;23.40;97640.00;;;;5094906;28;20219;-75
2022/06/24 08:24:19;;;;;;;0.85;0.85;;;;;23.30;97645.00;;;;5094807;28;20364;-75
2022/06/24 08:26:46;;;;;;;1.45;0.88;;;;;23.10;97646.00;;;;5094653;28;20183;-76
2022/06/24 08:29:12;;;;;;;0.95;0.95;;;;;23.20;97640.00;;;;5094770;28;20203;-76
2022/06/24 08:31:40;;;;;;;1.17;0.82;;;;;23.30;97638.00;;;;5096853;28;20206;-76
2022/06/24 08:34:09;;;;;;;0.80;0.80;;;;;23.40;97628.00;;;;5094421;28;20206;-76
2022/06/24 08:36:36;;;;;;;0.73;0.73;;;;;23.40;97638.00;;;;5094576;28;20218;-80
2022/06/24 08:39:03;;;;;;;0.65;0.65;;;;;23.50;97628.00;;;;5094277;28;20278;-76
2022/06/24 08:41:30;;;;;;;0.70;0.70;;;;;23.20;97634.00;;;;5094275;28;20789;-79
2022/06/24 08:43:58;;;;;;;0.50;0.50;;;;;23.30;97633.00;;;;5094427;28;20206;-78
2022/06/24 08:46:25;;;;;;;0.70;0.70;;;;;23.20;97628.00;;;;5093986;28;20198;-78
2022/06/24 08:48:58;;;;;;;0.50;0.50;;;;;23.20;97626.00;;;;5094248;28;20199;-78
2022/06/24 08:51:28;;;;;;;0.50;0.50;;;;;23.20;97616.00;;;;5094140;28;20210;-77
2022/06/24 08:54:00;;;;;;;0.50;0.50;;;;;23.30;97613.00;;;;5094125;28;20190;-76
2022/06/24 08:56:28;;;;;;;1.23;1.17;;;;;23.40;97611.00;;;;5096139;28;20234;-75
2022/06/24 08:58:55;;;;;;;1.08;1.05;;;;;23.60;97601.00;;;;5093859;28;20230;-80
2022/06/24 09:01:23;;;;;;;0.50;0.50;;;;;23.80;97607.00;;;;5093992;28;20210;-74
2022/06/24 09:03:50;;;;;;;0.75;0.75;;;;;24.20;97601.00;;;;5094026;28;20191;-78
2022/06/24 09:06:18;;;;;;;0.50;0.50;;;;;24.70;97602.00;;;;5093843;28;20240;-76
2022/06/24 09:08:47;;;;;;;1.20;1.15;;;;;24.60;97605.00;;;;5093751;28;20684;-76
2022/06/24 09:11:15;;;;;;;0.50;0.50;;;;;24.60;97596.00;;;;5093901;28;20198;-78
2022/06/24 09:13:44;;;;;;;0.63;0.63;;;;;24.60;97598.00;;;;5093790;28;20194;-77
2022/06/24 09:16:12;;;;;;;0.63;0.63;;;;;24.90;97591.00;;;;5093675;28;20211;-78
2022/06/24 09:18:40;;;;;;;1.17;1.15;;;;;24.90;97594.00;;;;5093601;28;20546;-75
2022/06/24 09:21:07;;;;;;;0.68;0.68;;;;;25.00;97591.00;;;;5093755;28;20191;-77
2022/06/24 09:23:52;;;;;;;0.50;0.50;;;;;25.00;97588.00;;;;5076051;28;20293;-75
2022/06/24 09:26:30;;;;;;;0.40;0.40;;;;;24.90;97591.00;;;;5098306;28;20202;-77
2022/06/24 09:28:57;;;;;;;0.50;0.50;;;;;25.10;97599.00;;;;5093694;28;20214;-76
2022/06/24 09:31:27;;;;;;;0.85;0.85;;;;;24.90;97597.00;;;;5093619;28;20190;-76
2022/06/24 09:33:55;;;;;;;0.98;0.98;;;;;25.00;97596.00;;;;5093527;28;20195;-74
2022/06/24 09:36:25;;;;;;;0.50;0.50;;;;;24.90;97596.00;;;;5094100;28;20649;-76
2022/06/24 09:38:56;;;;;;;0.70;0.70;;;;;25.10;97601.00;;;;5093724;28;20287;-76
2022/06/24 09:41:26;;;;;;;0.90;0.90;;;;;25.10;97598.00;;;;5093719;28;20222;-74
2022/06/24 09:43:53;;;;;;;0.60;0.60;;;;;25.00;97604.00;;;;5093530;28;20210;-75
2022/06/24 09:46:22;;;;;;;0.60;0.60;;;;;25.00;97591.00;;;;5093597;28;20191;-75
2022/06/24 09:48:51;;;;;;;4.22;1.10;;;;;25.00;97605.00;;;;5093316;28;20287;-75
2022/06/24 09:51:20;;;;;;;0.70;0.70;;;;;25.00;97603.00;;;;5093236;28;20542;-73
2022/06/24 09:53:47;;;;;;;0.45;0.45;;;;;25.10;97607.00;;;;5093336;28;20239;-75
2022/06/24 09:56:15;;;;;;;1.02;1.02;;;;;25.30;97602.00;;;;5093716;28;20203;-74
2022/06/24 09:58:43;;;;;;;0.60;0.60;;;;;25.50;97601.00;;;;5096343;28;20665;-77
2022/06/24 10:01:10;;;;;;;0.82;0.82;;;;;25.70;97601.00;;;;5096667;28;20225;-77
2022/06/24 10:03:47;;;;;;;2.50;1.35;;;;;25.80;97604.00;;;;5096807;28;20186;-77
2022/06/24 10:06:19;;;;;;;0.55;0.55;;;;;25.80;97600.00;;;;5096901;28;20277;-76
2022/06/24 10:08:46;;;;;;;0.60;0.60;;;;;25.80;97596.00;;;;5096578;28;20716;-76
2022/06/24 10:11:14;;;;;;;0.70;0.70;;;;;25.60;97595.00;;;;5096529;28;20187;-75
2022/06/24 10:13:41;;;;;;;0.65;0.65;;;;;25.50;97581.00;;;;5096406;28;20198;-76
2022/06/24 10:16:11;;;;;;;0.77;0.77;;;;;25.60;97586.00;;;;5096391;28;20188;-76
2022/06/24 10:18:40;;;;;;;0.68;0.68;;;;;25.60;97584.00;;;;5096213;28;20211;-75
2022/06/24 10:21:11;;;;;;;0.55;0.55;;;;;25.90;97590.00;;;;5096047;28;20657;-76
2022/06/24 10:23:43;;;;;;;0.60;0.60;;;;;25.60;97586.00;;;;5096358;28;20209;-77
2022/06/24 10:26:17;;;;;;;0.70;0.70;;;;;25.60;97586.00;;;;5096259;28;20228;-75
2022/06/24 10:29:17;;;;;;;0.80;0.80;;;;;25.80;97587.00;;;;5096255;28;20305;-74
2022/06/24 10:32:00;;;;;;;0.82;0.82;;;;;26.20;97591.00;;;;5095952;28;20492;-72
2022/06/24 10:34:43;;;;;;;1.55;1.45;;;;;26.20;97581.00;;;;5096210;28;20218;-71
2022/06/24 10:37:29;;;;;;;0.60;0.60;;;;;26.40;97584.00;;;;5096251;28;20190;-74
2022/06/24 10:40:00;;;;;;;1.00;1.00;;;;;26.40;97588.00;;;;5096287;28;20222;-75
2022/06/24 10:42:32;;;;;;;1.05;1.05;;;;;26.60;97586.00;;;;5096150;28;20199;-76
2022/06/24 10:45:03;;;;;;;1.23;1.02;;;;;26.60;97592.00;;;;5096001;28;20281;-74
2022/06/24 10:47:40;;;;;;;0.50;0.50;;;;;26.60;97593.00;;;;5096024;28;20626;-74
2022/06/24 10:50:14;;;;;;;0.70;0.70;;;;;26.00;97590.00;;;;5095983;28;20190;-73
2022/06/24 10:52:55;;;;;;;6.30;0.82;;;;;26.20;97585.00;;;;5096872;28;20271;-75
2022/06/24 10:55:39;;;;;;;0.93;0.93;;;;;26.00;97583.00;;;;5096233;28;20198;-74
2022/06/24 10:58:13;;;;;;;0.55;0.55;;;;;26.20;97578.00;;;;5095782;28;20218;-74
2022/06/24 11:00:53;;;;;;;0.60;0.60;;;;;26.50;97572.00;;;;5095841;28;20252;-75
2022/06/24 11:03:39;;;;;;;0.60;0.60;;;;;26.40;97575.00;;;;5095749;28;20201;-73
2022/06/24 11:06:09;;;;;;;0.50;0.50;;;;;26.80;97571.00;;;;5095902;28;20210;-75
2022/06/24 11:08:38;;;;;;;0.50;0.50;;;;;27.10;97559.00;;;;5095560;28;20199;-76
2022/06/24 11:11:05;;;;;;;0.57;0.57;;;;;27.40;97563.00;;;;5095650;28;20218;-75
2022/06/24 11:13:33;;;;;;;5.53;1.23;;;;;27.50;97560.00;;;;5095850;28;20199;-76
2022/06/24 11:16:00;;;;;;;0.65;0.65;;;;;27.80;97556.00;;;;5095836;28;20193;-73
2022/06/24 11:18:31;;;;;;;1.45;1.25;;;;;28.20;97559.00;;;;5095503;28;20276;-75
2022/06/24 11:20:59;;;;;;;0.70;0.70;;;;;28.60;97569.00;;;;5095534;28;20194;-75
2022/06/24 11:23:28;;;;;;;0.52;0.52;;;;;27.70;97571.00;;;;5095474;28;20277;-74
2022/06/24 11:26:01;;;;;;;0.57;0.57;;;;;27.90;97567.00;;;;5095648;28;20189;-75
2022/06/24 11:28:30;;;;;;;1.58;1.48;;;;;28.40;97570.00;;;;5077821;28;20658;-74
2022/06/24 11:31:13;;;;;;;1.23;0.98;;;;;28.90;97567.00;;;;5095262;28;20219;-78
2022/06/24 11:33:40;;;;;;;0.80;0.80;;;;;29.00;97572.00;;;;5095330;28;20641;-77
2022/06/24 11:36:07;;;;;;;5.43;1.17;;;;;29.30;97563.00;;;;5095295;28;20657;-75
2022/06/24 11:38:46;;;;;;;1.00;1.00;;;;;28.80;97564.00;;;;5095206;28;20291;-75
2022/06/24 11:41:21;;;;;;;0.52;0.52;;;;;29.30;97561.00;;;;5095336;28;20190;-74
2022/06/24 11:43:50;;;;;;;0.55;0.55;;;;;29.20;97559.00;;;;5095143;28;20233;-75
2022/06/24 11:46:17;;;;;;;0.60;0.60;;;;;28.80;97567.00;;;;5095334;28;20310;-74
2022/06/24 11:48:44;;;;;;;0.50;0.50;;;;;28.60;97564.00;;;;5095140;28;20519;-75
2022/06/24 11:51:18;;;;;;;0.55;0.55;;;;;28.80;97569.00;;;;5095320;28;20187;-74
2022/06/24 11:53:57;;;;;;;0.68;0.68;;;;;29.30;97543.00;;;;5095128;28;20538;-74
2022/06/24 11:56:24;;;;;;;0.50;0.50;;;;;29.40;97561.00;;;;5094946;28;20219;-75
2022/06/24 11:58:54;;;;;;;0.55;0.55;;;;;28.50;97556.00;;;;5077159;28;20245;-75
2022/06/24 12:01:24;;;;;;;0.68;0.68;;;;;28.10;97554.00;;;;5094900;28;20195;-74
2022/06/24 12:03:52;;;;;;;0.70;0.70;;;;;28.20;97551.00;;;;5094990;28;20644;-75
2022/06/24 12:06:20;;;;;;;0.50;0.50;;;;;28.30;97535.00;;;;5076869;28;20198;-76
2022/06/24 12:08:47;;;;;;;0.60;0.60;;;;;28.70;97545.00;;;;5094917;28;20222;-77
2022/06/24 12:11:15;;;;;;;0.85;0.85;;;;;29.20;97542.00;;;;5094709;28;20277;-74
2022/06/24 12:13:43;;;;;;;0.60;0.60;;;;;29.10;97534.00;;;;5094731;28;20198;-77
2022/06/24 12:16:10;;;;;;;0.50;0.50;;;;;28.80;97532.00;;;;5094541;28;20231;-76
2022/06/24 12:18:37;;;;;;;0.70;0.70;;;;;29.30;97525.00;;;;5093629;28;20222;-76
2022/06/24 12:21:05;;;;;;;0.68;0.68;;;;;29.60;97540.00;;;;5093844;28;20218;-77
2022/06/24 12:23:36;;;;;;;0.77;0.77;;;;;28.80;97553.00;;;;5094609;28;20207;-76
2022/06/24 12:26:12;;;;;;;0.60;0.60;;;;;28.50;97548.00;;;;5094615;28;20516;-75
2022/06/24 12:28:38;;;;;;;0.60;0.60;;;;;28.30;97537.00;;;;5076662;28;20230;-75
2022/06/24 12:31:07;;;;;;;0.43;0.43;;;;;28.20;97537.00;;;;5094404;28;20275;-76